Time;durP1;ratioP1;P1;durP2;ratioP2;P2;SDS_P1;SDS_P2;PMS_P1;PMS_P2;Temp;Humidity;BMP_temperature;BMP_pressure;BME280_temperature;BME280_humidity;BME280_pressure;Samples;Min_cycle;Max_cycle;Signal;HPM_P1;HPM_P2
2022/10/07 00:01:38;;;;;;;12.60;3.13;;;;;;;8.19;90.51;102809.81;4985971;28;20581;-70
2022/10/07 00:04:03;;;;;;;4.47;2.40;;;;;;;8.22;91.06;102812.59;4999553;28;20190;-71
2022/10/07 00:06:28;;;;;;;6.63;3.03;;;;;;;8.10;90.86;102808.34;5000660;28;20215;-70
2022/10/07 00:08:54;;;;;;;6.23;2.60;;;;;;;8.10;90.53;102818.56;4997004;28;20188;-70
2022/10/07 00:11:25;;;;;;;9.63;3.30;;;;;;;8.16;91.64;102812.16;5003233;28;20581;-71
2022/10/07 00:13:54;;;;;;;10.97;3.80;;;;;;;8.14;91.28;102807.75;4995043;28;20215;-69
2022/10/07 00:16:23;;;;;;;6.33;3.20;;;;;;;8.13;92.08;102808.56;4994648;28;20187;-70
2022/10/07 00:18:50;;;;;;;6.83;3.60;;;;;;;8.11;92.12;102800.81;4991618;28;20199;-70
2022/10/07 00:21:17;;;;;;;7.37;3.40;;;;;;;8.13;92.04;102801.78;4997321;28;20235;-70
2022/10/07 00:23:44;;;;;;;8.90;3.10;;;;;;;8.06;92.85;102793.69;4994694;28;20805;-70
2022/10/07 00:26:14;;;;;;;6.30;3.70;;;;;;;8.03;92.03;102794.38;4999604;28;20213;-69
2022/10/07 00:28:40;;;;;;;7.30;4.10;;;;;;;8.02;91.86;102792.59;5003000;28;20187;-69
2022/10/07 00:31:09;;;;;;;7.73;3.50;;;;;;;8.00;92.51;102795.84;4993104;28;20204;-70
2022/10/07 00:33:36;;;;;;;9.83;3.17;;;;;;;7.94;92.06;102790.38;5002041;28;20681;-70
2022/10/07 00:36:09;;;;;;;6.07;3.03;;;;;;;7.91;92.13;102788.53;4994978;28;20226;-70
2022/10/07 00:38:35;;;;;;;9.10;4.00;;;;;;;7.89;91.74;102784.13;5000761;28;20282;-70
2022/10/07 00:41:00;;;;;;;6.73;2.73;;;;;;;7.82;91.88;102790.50;5004669;28;20212;-70
2022/10/07 00:43:30;;;;;;;7.00;2.67;;;;;;;7.66;91.55;102785.25;4990765;28;20238;-70
2022/10/07 00:46:15;;;;;;;11.43;3.63;;;;;;;7.62;91.82;102784.97;5001809;28;20191;-70
2022/10/07 00:48:41;;;;;;;8.40;3.43;;;;;;;7.62;92.20;102783.31;4995248;28;20184;-70
2022/10/07 00:51:08;;;;;;;7.13;2.80;;;;;;;7.69;92.18;102775.22;4989429;28;20210;-70
2022/10/07 00:53:37;;;;;;;7.77;3.13;;;;;;;7.68;92.15;102765.84;4995897;28;20211;-70
2022/10/07 00:56:05;;;;;;;7.70;2.87;;;;;;;7.62;91.93;102767.13;5002691;28;20697;-70
2022/10/07 00:58:34;;;;;;;8.40;3.40;;;;;;;7.64;92.18;102771.53;4991229;28;20188;-70
2022/10/07 01:01:00;;;;;;;8.37;3.70;;;;;;;7.67;92.91;102768.28;5002215;28;20219;-70
2022/10/07 01:03:26;;;;;;;8.43;3.33;;;;;;;7.63;92.63;102764.66;4997463;28;20249;-70
2022/10/07 01:05:53;;;;;;;9.40;3.60;;;;;;;7.53;92.36;102767.44;4988261;28;20188;-70
2022/10/07 01:08:21;;;;;;;8.93;3.37;;;;;;;7.50;93.17;102761.25;4989876;28;20282;-69
2022/10/07 01:11:12;;;;;;;8.63;3.77;;;;;;;7.49;92.88;102762.94;4992206;28;20659;-70
2022/10/07 01:13:50;;;;;;;9.80;4.03;;;;;;;7.52;92.62;102760.59;4987216;28;20232;-70
2022/10/07 01:16:43;;;;;;;5.10;3.60;;;;;;;7.50;93.36;102751.94;4991778;28;20388;-69
2022/10/07 01:19:23;;;;;;;8.70;3.93;;;;;;;7.47;93.31;102759.38;4998820;28;20286;-70
2022/10/07 01:22:20;;;;;;;6.50;3.70;;;;;;;7.42;93.60;102750.56;4997995;28;20734;-70
2022/10/07 01:25:05;;;;;;;8.03;3.43;;;;;;;7.39;93.37;102747.88;4995256;28;20196;-70
2022/10/07 01:27:33;;;;;;;8.33;3.77;;;;;;;7.40;93.82;102741.06;4987918;28;20278;-69
2022/10/07 01:30:04;;;;;;;9.80;3.87;;;;;;;7.31;93.03;102738.84;4989198;28;20220;-70
2022/10/07 01:32:35;;;;;;;9.17;3.70;;;;;;;7.33;93.13;102736.41;4986724;28;20866;-70
2022/10/07 01:35:04;;;;;;;9.90;3.30;;;;;;;7.29;93.70;102734.44;5006308;28;20196;-70
2022/10/07 01:37:35;;;;;;;7.37;3.83;;;;;;;7.27;93.18;102726.69;4996452;28;20190;-70
2022/10/07 01:40:06;;;;;;;5.67;3.10;;;;;;;7.25;93.83;102725.72;4983126;28;20291;-70
2022/10/07 01:42:32;;;;;;;6.37;3.70;;;;;;;7.26;92.94;102717.31;4993503;28;20264;-70
2022/10/07 01:44:58;;;;;;;10.57;3.63;;;;;;;7.23;93.00;102716.25;4995122;28;20298;-70
2022/10/07 01:47:25;;;;;;;7.67;3.30;;;;;;;7.23;93.07;102717.09;4992308;28;20287;-70
2022/10/07 01:49:50;;;;;;;7.80;3.40;;;;;;;7.23;93.13;102714.56;5000088;28;20202;-70
2022/10/07 01:52:28;;;;;;;6.73;3.40;;;;;;;7.26;93.72;102713.84;4995169;28;20208;-70
2022/10/07 01:55:07;;;;;;;9.73;4.10;;;;;;;7.25;94.32;102709.56;4991487;28;20281;-71
2022/10/07 01:58:05;;;;;;;6.60;3.40;;;;;;;7.24;94.50;102702.72;5000742;28;20211;-70
2022/10/07 02:00:37;;;;;;;14.43;3.57;;;;;;;7.23;93.55;102699.25;4994162;28;20238;-70
2022/10/07 02:03:20;;;;;;;7.17;3.90;;;;;;;7.14;93.38;102691.03;4992686;28;20180;-70
2022/10/07 02:06:05;;;;;;;6.57;3.13;;;;;;;7.14;93.66;102690.19;4997945;28;20567;-70
2022/10/07 02:08:39;;;;;;;7.30;3.40;;;;;;;7.11;94.26;102690.88;5006179;28;20280;-70
2022/10/07 02:11:35;;;;;;;6.70;3.47;;;;;;;7.03;93.79;102686.06;5004433;28;20226;-70
2022/10/07 02:14:13;;;;;;;7.00;3.03;;;;;;;7.07;93.76;102681.28;5005487;28;20243;-69
2022/10/07 02:16:48;;;;;;;11.07;3.50;;;;;;;7.01;94.45;102680.00;5003797;28;20187;-70
2022/10/07 02:19:31;;;;;;;6.20;3.43;;;;;;;7.04;95.03;102677.66;5003687;28;20191;-69
2022/10/07 02:22:00;;;;;;;9.90;3.67;;;;;;;7.06;94.83;102668.44;4994960;28;20352;-68
2022/10/07 02:24:29;;;;;;;10.40;3.83;;;;;;;7.08;94.33;102671.94;4993459;28;20180;-70
2022/10/07 02:27:00;;;;;;;6.60;3.80;;;;;;;7.07;95.33;102668.53;4988725;28;20195;-70
2022/10/07 02:29:29;;;;;;;8.90;3.90;;;;;;;7.02;94.67;102662.28;4996708;28;20226;-69
2022/10/07 02:31:58;;;;;;;9.90;3.60;;;;;;;6.97;95.19;102663.66;4982211;28;20365;-70
2022/10/07 02:34:27;;;;;;;6.80;3.33;;;;;;;6.93;94.29;102661.72;4994492;28;20196;-71
2022/10/07 02:36:57;;;;;;;7.77;3.57;;;;;;;6.92;94.25;102656.50;4972267;28;20314;-70
2022/10/07 02:39:27;;;;;;;7.20;3.40;;;;;;;6.86;94.17;102663.78;4993906;28;20195;-70
2022/10/07 02:42:07;;;;;;;10.83;3.83;;;;;;;6.86;94.66;102658.69;4972659;28;20203;-70
2022/10/07 02:44:42;;;;;;;9.40;4.20;;;;;;;6.82;94.95;102649.09;4990416;28;20225;-70
2022/10/07 02:47:33;;;;;;;7.07;3.53;;;;;;;6.81;94.69;102650.75;4987576;28;20279;-70
2022/10/07 02:50:01;;;;;;;8.20;3.83;;;;;;;6.80;95.00;102648.97;5002099;28;20715;-70
2022/10/07 02:52:30;;;;;;;6.70;4.20;;;;;;;6.76;94.40;102651.22;4992803;28;20215;-70
2022/10/07 02:55:17;;;;;;;7.37;4.07;;;;;;;6.78;94.94;102649.66;4990934;28;20192;-69
2022/10/07 02:57:46;;;;;;;10.90;4.13;;;;;;;6.76;95.15;102644.47;5002698;28;20219;-69
2022/10/07 03:00:14;;;;;;;6.30;3.27;;;;;;;6.76;95.52;102635.94;4995397;28;20211;-70
2022/10/07 03:02:54;;;;;;;6.63;3.50;;;;;;;6.73;94.93;102643.41;5002723;28;20649;-70
2022/10/07 03:05:24;;;;;;;6.13;3.20;;;;;;;6.67;95.24;102638.81;4992021;28;20198;-69
2022/10/07 03:08:00;;;;;;;8.80;3.67;;;;;;;6.66;94.76;102629.41;4993510;28;20188;-70
2022/10/07 03:10:25;;;;;;;7.53;3.77;;;;;;;6.66;95.61;102626.88;4992726;28;20567;-70
2022/10/07 03:12:52;;;;;;;7.40;3.70;;;;;;;6.72;94.87;102628.94;4991057;28;20211;-71
2022/10/07 03:15:18;;;;;;;11.57;4.23;;;;;;;6.66;95.25;102623.44;4996661;28;20187;-69
2022/10/07 03:17:44;;;;;;;13.97;4.80;;;;;;;6.62;95.70;102627.44;4997840;28;20661;-70
2022/10/07 03:20:10;;;;;;;6.20;3.63;;;;;;;6.61;95.84;102629.91;4997505;28;20289;-70
2022/10/07 03:22:36;;;;;;;9.33;4.10;;;;;;;6.60;95.65;102623.06;5001265;28;20182;-70
2022/10/07 03:25:02;;;;;;;12.13;4.03;;;;;;;6.56;95.40;102621.09;4990578;28;20251;-71
2022/10/07 03:27:27;;;;;;;11.57;4.07;;;;;;;6.52;95.11;102620.03;5001941;28;20214;-70
2022/10/07 03:29:57;;;;;;;10.43;4.00;;;;;;;6.51;95.36;102619.91;4995843;28;20699;-71
2022/10/07 03:32:24;;;;;;;7.53;4.00;;;;;;;6.45;94.96;102622.94;4997224;28;20236;-70
2022/10/07 03:34:51;;;;;;;9.40;4.10;;;;;;;6.46;95.14;102614.56;5001481;28;20217;-70
2022/10/07 03:37:17;;;;;;;12.80;5.43;;;;;;;6.46;94.75;102613.66;5012909;28;20180;-70
2022/10/07 03:39:42;;;;;;;6.83;3.77;;;;;;;6.46;94.95;102606.03;5001132;28;20183;-70
2022/10/07 03:42:08;;;;;;;7.03;3.70;;;;;;;6.40;94.68;102609.03;4996666;28;20210;-72
2022/10/07 03:44:34;;;;;;;8.33;4.13;;;;;;;6.35;94.87;102605.34;4986686;28;20196;-70
2022/10/07 03:47:00;;;;;;;10.47;3.67;;;;;;;6.41;94.95;102604.84;5000453;28;20257;-69
2022/10/07 03:49:26;;;;;;;5.63;3.97;;;;;;;6.39;95.13;102602.22;4975383;28;20184;-71
2022/10/07 03:51:51;;;;;;;8.80;3.97;;;;;;;6.38;94.98;102597.00;5005526;28;20199;-72
2022/10/07 03:54:18;;;;;;;7.53;4.07;;;;;;;6.32;94.32;102591.53;4991260;28;20199;-71
2022/10/07 03:56:43;;;;;;;8.00;3.30;;;;;;;6.29;94.81;102598.97;4990593;28;20184;-71
2022/10/07 03:59:09;;;;;;;9.57;4.00;;;;;;;6.28;94.29;102589.59;4983280;28;20200;-70
2022/10/07 04:01:34;;;;;;;6.87;4.30;;;;;;;6.25;94.97;102584.28;4997949;28;20239;-71
2022/10/07 04:04:00;;;;;;;8.23;4.10;;;;;;;6.25;94.60;102591.91;5001496;28;20279;-71
2022/10/07 04:06:28;;;;;;;8.60;3.50;;;;;;;6.26;94.97;102588.63;5002377;28;20191;-70
2022/10/07 04:08:54;;;;;;;6.67;4.10;;;;;;;6.24;94.84;102587.63;5000369;28;20191;-70
2022/10/07 04:11:21;;;;;;;10.43;4.10;;;;;;;6.25;94.59;102582.63;4994325;28;20219;-71
2022/10/07 04:13:48;;;;;;;6.13;3.80;;;;;;;6.23;94.97;102578.22;5001131;28;20207;-71
2022/10/07 04:16:16;;;;;;;10.93;4.63;;;;;;;6.20;95.32;102585.66;4993256;28;20661;-71
2022/10/07 04:18:42;;;;;;;8.53;3.93;;;;;;;6.28;95.28;102579.41;4987917;28;20207;-71
2022/10/07 04:21:09;;;;;;;11.07;4.50;;;;;;;6.23;95.36;102570.59;4994276;28;20207;-70
2022/10/07 04:23:35;;;;;;;5.17;3.60;;;;;;;6.20;95.77;102571.28;4995511;28;20183;-71
2022/10/07 04:26:09;;;;;;;6.70;3.87;;;;;;;6.15;95.56;102576.84;4998627;28;20188;-71
2022/10/07 04:28:35;;;;;;;8.13;4.13;;;;;;;6.17;95.30;102570.22;4999525;28;20188;-70
2022/10/07 04:31:10;;;;;;;9.07;4.20;;;;;;;6.18;95.00;102575.38;4976629;28;20235;-71
2022/10/07 04:33:41;;;;;;;5.80;4.40;;;;;;;6.13;95.24;102580.97;4994354;28;20211;-71
2022/10/07 04:36:09;;;;;;;8.50;4.10;;;;;;;6.15;95.24;102575.19;4992523;28;20270;-71
2022/10/07 04:38:43;;;;;;;9.63;4.07;;;;;;;6.06;95.26;102578.78;4996196;28;20179;-71
2022/10/07 04:41:09;;;;;;;9.73;4.10;;;;;;;6.06;95.10;102574.59;4997479;28;20469;-71
2022/10/07 04:43:37;;;;;;;5.63;3.90;;;;;;;6.06;95.78;102576.25;4994290;28;20180;-71
2022/10/07 04:46:13;;;;;;;7.20;4.40;;;;;;;6.05;95.37;102569.41;5000650;28;20337;-71
2022/10/07 04:48:45;;;;;;;7.93;4.30;;;;;;;6.03;95.36;102566.78;4995207;28;20253;-71
2022/10/07 04:51:14;;;;;;;8.67;4.37;;;;;;;6.07;95.76;102562.75;5000288;28;20218;-71
2022/10/07 04:53:41;;;;;;;8.83;4.37;;;;;;;6.07;96.35;102558.56;4991803;28;20234;-71
2022/10/07 04:56:10;;;;;;;7.23;4.00;;;;;;;6.07;95.86;102558.56;5001220;28;20222;-72
2022/10/07 04:58:35;;;;;;;9.80;4.40;;;;;;;6.08;95.85;102554.38;4990900;28;20189;-71
2022/10/07 05:01:07;;;;;;;8.13;4.20;;;;;;;6.12;95.99;102552.09;4989962;28;20230;-71
2022/10/07 05:03:37;;;;;;;6.97;4.10;;;;;;;6.12;96.00;102552.09;4991162;28;20183;-71
2022/10/07 05:06:03;;;;;;;9.33;4.10;;;;;;;6.15;96.59;102548.88;4991286;28;20179;-70
2022/10/07 05:08:30;;;;;;;12.37;4.23;;;;;;;6.18;96.94;102549.94;5001023;28;20627;-70
2022/10/07 05:10:59;;;;;;;10.57;3.77;;;;;;;6.20;96.94;102544.97;4993183;28;20215;-70
2022/10/07 05:13:27;;;;;;;14.50;4.40;;;;;;;6.29;96.63;102545.56;4995175;28;20294;-71
2022/10/07 05:15:56;;;;;;;6.60;3.93;;;;;;;6.29;97.52;102541.34;4987883;28;20187;-70
2022/10/07 05:18:25;;;;;;;7.00;3.97;;;;;;;6.31;97.21;102544.88;4994468;28;20196;-71
2022/10/07 05:20:52;;;;;;;8.73;4.00;;;;;;;6.29;97.09;102541.34;4992271;28;20218;-70
2022/10/07 05:23:20;;;;;;;10.30;4.07;;;;;;;6.33;97.04;102542.44;4995601;28;20192;-70
2022/10/07 05:25:55;;;;;;;8.73;4.23;;;;;;;6.31;97.27;102544.88;4998689;28;20195;-71
2022/10/07 05:28:22;;;;;;;7.87;3.97;;;;;;;6.30;97.46;102543.13;4996623;28;20584;-71
2022/10/07 05:30:48;;;;;;;9.93;4.30;;;;;;;6.25;97.65;102548.69;4993351;28;20242;-70
2022/10/07 05:33:13;;;;;;;9.97;4.40;;;;;;;6.26;97.38;102542.84;4989554;28;20656;-70
2022/10/07 05:35:45;;;;;;;8.63;3.90;;;;;;;6.22;97.10;102538.34;4996925;28;20315;-71
2022/10/07 05:38:10;;;;;;;6.43;3.87;;;;;;;6.18;96.92;102546.53;4987334;28;20195;-71
2022/10/07 05:40:36;;;;;;;9.43;4.40;;;;;;;6.16;96.88;102540.47;4995219;28;20203;-71
2022/10/07 05:43:02;;;;;;;7.83;3.37;;;;;;;6.18;96.00;102542.31;4987584;28;20204;-70
2022/10/07 05:45:30;;;;;;;15.83;4.10;;;;;;;6.25;96.56;102538.50;4987795;28;20246;-71
2022/10/07 05:47:57;;;;;;;14.77;4.50;;;;;;;6.29;95.96;102538.81;4997983;28;20188;-71
2022/10/07 05:50:22;;;;;;;8.57;4.03;;;;;;;6.33;95.98;102537.34;4988382;28;20218;-71
2022/10/07 05:52:48;;;;;;;8.57;3.67;;;;;;;6.33;96.05;102529.72;4995814;28;20215;-71
2022/10/07 05:55:14;;;;;;;4.00;3.10;;;;;;;6.33;95.87;102537.34;4997623;28;20194;-71
2022/10/07 05:57:40;;;;;;;9.93;3.30;;;;;;;6.36;95.88;102537.53;4999398;28;20180;-72
2022/10/07 06:00:07;;;;;;;9.47;3.50;;;;;;;6.38;96.17;102539.41;4988729;28;20842;-70
2022/10/07 06:02:39;;;;;;;7.53;4.07;;;;;;;6.38;95.79;102530.88;4985424;28;20735;-70
2022/10/07 06:05:05;;;;;;;7.97;3.40;;;;;;;6.36;95.80;102535.84;4994101;28;20331;-70
2022/10/07 06:07:31;;;;;;;8.63;3.60;;;;;;;6.42;96.56;102531.19;4994733;28;20233;-70
2022/10/07 06:15:28;;;;;;;9.97;3.50;;;;;;;6.48;95.87;102526.47;4991482;28;20249;-71
2022/10/07 06:17:54;;;;;;;7.93;3.67;;;;;;;6.54;95.94;102525.97;4996328;28;20194;-71
2022/10/07 06:20:20;;;;;;;6.57;3.03;;;;;;;6.67;96.16;102525.94;4995416;28;20211;-72
2022/10/07 06:22:47;;;;;;;9.17;3.83;;;;;;;6.71;96.32;102526.22;4994768;28;20634;-71
2022/10/07 06:25:15;;;;;;;9.40;3.03;;;;;;;6.75;96.43;102533.28;4984279;28;20818;-71
2022/10/07 06:27:42;;;;;;;7.23;3.23;;;;;;;6.84;96.89;102525.31;4995152;28;20187;-71
2022/10/07 06:30:08;;;;;;;8.47;3.57;;;;;;;6.93;96.33;102528.41;4994320;28;20578;-71
2022/10/07 06:32:34;;;;;;;6.70;3.20;;;;;;;6.97;96.48;102517.63;4997872;28;20235;-71
2022/10/07 06:34:59;;;;;;;8.63;3.20;;;;;;;7.12;96.43;102513.44;4986645;28;20197;-70
2022/10/07 06:37:29;;;;;;;7.50;2.77;;;;;;;7.18;96.16;102519.78;4997205;28;20222;-71
2022/10/07 06:39:54;;;;;;;9.20;3.47;;;;;;;7.49;96.30;102514.84;4994721;28;20257;-72
2022/10/07 06:42:21;;;;;;;10.20;3.60;;;;;;;7.67;96.01;102519.34;4998251;28;20206;-71
2022/10/07 06:45:16;;;;;;;10.03;3.23;;;;;;;7.89;95.79;102517.22;4996785;28;20211;-71
2022/10/07 06:47:42;;;;;;;10.40;3.50;;;;;;;8.04;95.31;102514.66;5004236;28;20191;-71
2022/10/07 06:50:07;;;;;;;7.87;2.80;;;;;;;8.21;95.04;102513.97;4994038;28;20214;-71
2022/10/07 06:52:33;;;;;;;9.87;3.07;;;;;;;8.36;94.52;102518.25;4993442;28;20254;-72
2022/10/07 06:54:58;;;;;;;9.63;3.43;;;;;;;8.61;94.21;102518.78;4997005;28;20677;-72
2022/10/07 06:57:24;;;;;;;9.70;2.83;;;;;;;8.80;93.89;102508.72;4996083;28;20191;-71
2022/10/07 06:59:50;;;;;;;10.57;3.27;;;;;;;9.01;93.05;102504.75;4999145;28;20803;-72
2022/10/07 07:02:16;;;;;;;7.90;3.23;;;;;;;9.27;92.01;102506.09;4993223;28;20180;-71
2022/10/07 07:04:42;;;;;;;8.13;2.97;;;;;;;9.41;90.71;102498.34;4998679;28;20194;-70
2022/10/07 07:07:08;;;;;;;8.60;3.00;;;;;;;9.61;90.70;102504.44;4996937;28;20233;-71
2022/10/07 07:09:33;;;;;;;8.17;3.00;;;;;;;9.79;89.83;102502.78;4998864;28;20214;-72
2022/10/07 07:11:59;;;;;;;6.90;2.87;;;;;;;9.96;89.04;102489.16;4995208;28;20501;-71
2022/10/07 07:14:33;;;;;;;10.83;2.53;;;;;;;10.14;87.96;102493.47;4989087;28;20763;-70
2022/10/07 07:17:03;;;;;;;8.97;3.23;;;;;;;10.33;87.10;102497.78;4997087;28;20191;-71
2022/10/07 07:19:29;;;;;;;8.07;3.07;;;;;;;10.48;87.00;102499.38;4990781;28;20191;-71
2022/10/07 07:21:55;;;;;;;8.33;3.23;;;;;;;10.59;85.66;102487.03;4995632;28;20947;-71
2022/10/07 07:24:22;;;;;;;9.80;3.10;;;;;;;10.82;85.33;102484.72;4997901;28;20258;-71
2022/10/07 07:26:47;;;;;;;11.67;2.87;;;;;;;11.02;83.66;102490.75;4995997;28;20661;-71
2022/10/07 07:29:15;;;;;;;7.50;2.93;;;;;;;11.21;83.45;102485.59;4993225;28;20192;-71
2022/10/07 07:31:46;;;;;;;7.27;2.47;;;;;;;11.32;82.61;102485.25;4997665;28;20273;-70
2022/10/07 07:34:13;;;;;;;8.93;2.10;;;;;;;11.34;81.16;102475.06;4993572;28;20213;-71
2022/10/07 07:36:44;;;;;;;5.83;2.40;;;;;;;11.53;81.09;102482.72;5001002;28;20191;-71
2022/10/07 07:39:12;;;;;;;6.67;2.57;;;;;;;11.75;80.24;102470.84;5010306;28;20196;-71
2022/10/07 07:41:40;;;;;;;6.43;1.77;;;;;;;11.78;78.58;102468.41;5001663;28;20211;-71
2022/10/07 07:44:10;;;;;;;6.37;2.17;;;;;;;12.06;78.85;102475.50;5005579;28;20179;-71
2022/10/07 07:46:40;;;;;;;7.50;2.20;;;;;;;12.17;77.77;102469.97;5001842;28;20191;-71
2022/10/07 07:49:09;;;;;;;10.93;2.50;;;;;;;12.25;77.30;102468.59;5006062;28;20700;-72
2022/10/07 07:51:35;;;;;;;7.97;2.30;;;;;;;12.54;76.99;102464.56;4998205;28;20358;-72
2022/10/07 07:54:01;;;;;;;7.00;2.70;;;;;;;12.65;76.59;102452.97;4995685;28;20299;-72
2022/10/07 07:56:28;;;;;;;7.97;2.37;;;;;;;12.99;76.82;102455.13;4995058;28;20187;-71
2022/10/07 07:58:55;;;;;;;4.23;1.77;;;;;;;12.87;75.25;102460.66;5001995;28;20199;-72
2022/10/07 08:01:21;;;;;;;6.93;1.93;;;;;;;12.94;75.29;102454.91;4996488;28;20211;-71
2022/10/07 08:03:47;;;;;;;8.37;2.20;;;;;;;13.29;74.27;102453.59;4988410;28;20214;-71
2022/10/07 08:06:16;;;;;;;9.10;2.50;;;;;;;13.29;72.68;102454.47;4996588;28;20245;-71
2022/10/07 08:08:42;;;;;;;7.80;2.10;;;;;;;13.44;72.69;102446.41;4986756;28;20191;-71
2022/10/07 08:11:18;;;;;;;7.53;2.07;;;;;;;13.50;72.14;102444.03;4991490;28;20204;-72
2022/10/07 08:13:45;;;;;;;5.60;2.10;;;;;;;13.74;71.38;102452.56;4998746;28;20214;-70
2022/10/07 08:16:17;;;;;;;6.70;2.07;;;;;;;13.90;71.07;102441.94;4994846;28;20188;-71
2022/10/07 08:18:47;;;;;;;5.33;2.40;;;;;;;13.78;70.13;102439.84;4997185;28;20526;-71
2022/10/07 08:21:14;;;;;;;9.87;2.60;;;;;;;13.79;71.01;102443.28;4989427;28;20258;-72
2022/10/07 08:23:40;;;;;;;6.57;2.23;;;;;;;13.88;69.18;102444.44;4996115;28;20187;-71
2022/10/07 08:26:07;;;;;;;8.10;2.50;;;;;;;14.12;69.77;102431.44;5001034;28;20214;-71
2022/10/07 08:28:35;;;;;;;8.27;2.40;;;;;;;14.40;67.95;102424.63;4999245;28;20194;-72
2022/10/07 08:31:05;;;;;;;9.57;2.53;;;;;;;14.77;66.78;102426.53;4987609;28;20705;-71
2022/10/07 08:33:34;;;;;;;7.67;1.93;;;;;;;14.84;66.86;102426.78;5010587;28;20261;-72
2022/10/07 08:36:02;;;;;;;6.40;2.30;;;;;;;14.86;67.44;102414.78;4993128;28;20295;-71
2022/10/07 08:38:32;;;;;;;7.00;2.37;;;;;;;14.79;67.09;102423.19;4999521;28;20238;-71
2022/10/07 08:41:09;;;;;;;7.63;2.30;;;;;;;15.17;66.59;102411.28;4999896;28;20214;-71
2022/10/07 08:43:53;;;;;;;5.53;2.13;;;;;;;15.33;66.02;102411.72;4995797;28;20183;-72
2022/10/07 08:46:26;;;;;;;7.07;2.37;;;;;;;15.80;65.47;102402.59;5001522;28;20187;-73
2022/10/07 08:49:04;;;;;;;6.30;2.17;;;;;;;16.03;64.25;102398.81;4996098;28;20232;-74
2022/10/07 08:51:39;;;;;;;7.73;2.50;;;;;;;15.85;63.81;102395.81;4994690;28;20815;-74
2022/10/07 08:54:05;;;;;;;8.05;2.30;;;;;;;16.46;62.71;102389.44;4977319;28;20379;-73
2022/10/07 08:56:32;;;;;;;8.32;2.45;;;;;;;16.71;61.98;102391.66;4997194;28;20726;-73
2022/10/07 08:59:16;;;;;;;4.55;2.08;;;;;;;17.97;57.28;102385.22;4989544;28;20254;-73
2022/10/07 09:02:04;;;;;;;7.57;2.10;;;;;;;20.95;49.85;102369.50;4991181;28;20295;-74
2022/10/07 09:04:53;;;;;;;6.90;2.28;;;;;;;20.35;49.21;102373.63;4991681;28;20192;-74
2022/10/07 09:07:30;;;;;;;8.93;2.42;;;;;;;20.84;49.20;102366.00;5000291;28;20187;-74
2022/10/07 09:10:24;;;;;;;8.85;2.53;;;;;;;22.77;43.87;102356.09;4973990;28;20195;-73
2022/10/07 09:12:56;;;;;;;10.95;2.53;;;;;;;23.14;43.39;102341.00;4986997;28;20259;-73
2022/10/07 09:15:32;;;;;;;8.13;2.33;;;;;;;23.19;42.90;102339.25;4999809;28;20270;-73
2022/10/07 09:18:09;;;;;;;7.65;2.38;;;;;;;22.96;42.69;102336.78;4997934;28;20702;-73
2022/10/07 09:20:41;;;;;;;8.40;2.30;;;;;;;23.17;42.00;102335.75;5017118;28;20242;-73
2022/10/07 09:23:14;;;;;;;8.98;2.30;;;;;;;23.50;41.35;102330.25;5000203;28;20270;-73
2022/10/07 09:25:40;;;;;;;8.38;2.25;;;;;;;23.83;41.51;102325.53;4991975;28;20191;-73
2022/10/07 09:28:11;;;;;;;8.85;2.60;;;;;;;23.86;40.38;102325.50;4987811;28;20188;-72
2022/10/07 09:30:37;;;;;;;5.95;2.38;;;;;;;24.47;39.29;102309.91;4995875;28;20319;-73
2022/10/07 09:33:04;;;;;;;5.32;2.20;;;;;;;24.80;39.06;102312.06;5003561;28;20660;-73
2022/10/07 09:35:32;;;;;;;4.05;2.10;;;;;;;24.97;38.06;102303.06;4989354;28;20191;-73
2022/10/07 09:38:08;;;;;;;6.03;2.30;;;;;;;26.01;36.98;102296.75;5002666;28;20307;-72
2022/10/07 09:41:13;;;;;;;9.25;2.63;;;;;;;27.69;34.88;102286.53;4997295;28;20207;-70
2022/10/07 09:43:29;;;;;;;7.35;2.67;;;;;;;27.04;35.60;102295.28;4997375;28;20226;-70
2022/10/07 09:45:56;;;;;;;7.43;2.50;;;;;;;26.89;36.00;102285.13;4994443;28;20180;-74
2022/10/07 09:48:27;;;;;;;8.57;3.00;;;;;;;24.68;37.62;102289.53;4993700;28;20864;-72
2022/10/07 09:51:18;;;;;;;9.27;2.80;;;;;;;26.31;36.93;102287.34;4998779;28;20218;-72
2022/10/07 09:53:57;;;;;;;6.80;2.28;;;;;;;25.95;36.53;102277.63;4984740;28;20219;-72
2022/10/07 09:56:39;;;;;;;9.57;2.63;;;;;;;26.69;34.69;102271.59;4994225;28;20188;-72
2022/10/07 09:59:23;;;;;;;5.10;2.13;;;;;;;25.60;35.85;102270.44;4999119;28;20199;-72
2022/10/07 10:02:13;;;;;;;5.35;2.08;;;;;;;26.92;34.49;102274.53;4991636;28;20270;-72
2022/10/07 10:04:51;;;;;;;7.32;2.60;;;;;;;26.86;35.49;102266.78;4987981;28;20196;-72
2022/10/07 10:07:35;;;;;;;5.00;2.10;;;;;;;27.10;34.48;102263.53;5001811;28;20182;-72
2022/10/07 10:10:11;;;;;;;9.57;2.90;;;;;;;27.93;32.41;102259.50;4995315;28;20710;-72
2022/10/07 10:12:45;;;;;;;7.18;2.45;;;;;;;27.74;33.05;102253.88;4999435;28;20199;-73
2022/10/07 10:15:23;;;;;;;9.93;2.67;;;;;;;28.67;32.82;102244.88;4991337;28;20219;-71
2022/10/07 10:17:49;;;;;;;6.80;2.50;;;;;;;30.82;29.96;102236.81;5002044;28;20653;-70
2022/10/07 10:20:38;;;;;;;6.47;2.47;;;;;;;29.46;31.57;102234.19;4988942;28;20215;-73
2022/10/07 10:23:22;;;;;;;6.15;2.17;;;;;;;30.19;29.79;102236.78;4998806;28;20179;-70
2022/10/07 10:26:26;;;;;;;6.78;2.55;;;;;;;26.74;34.11;102246.91;4989954;28;20245;-72
2022/10/07 10:29:13;;;;;;;8.63;2.80;;;;;;;28.64;32.81;102237.09;4993739;28;20188;-73
2022/10/07 10:32:23;;;;;;;8.05;2.58;;;;;;;29.34;29.97;102231.97;4996588;28;20207;-73
2022/10/07 10:34:58;;;;;;;6.72;2.40;;;;;;;30.50;29.10;102230.19;4977477;28;20203;-73
2022/10/07 10:37:39;;;;;;;7.18;2.10;;;;;;;30.91;28.38;102220.53;4993453;28;20203;-71
2022/10/07 10:40:29;;;;;;;7.60;2.20;;;;;;;29.36;29.66;102232.81;4992209;28;20263;-70
2022/10/07 10:43:23;;;;;;;7.80;2.70;;;;;;;28.17;31.34;102230.63;4994859;28;20175;-72
2022/10/07 10:46:12;;;;;;;13.38;3.35;;;;;;;27.64;32.17;102217.31;5001314;28;20329;-72
2022/10/07 10:48:59;;;;;;;5.20;1.95;;;;;;;31.16;28.46;102207.97;4993669;28;20249;-73
2022/10/07 10:51:42;;;;;;;9.18;2.13;;;;;;;30.41;29.58;102206.75;4999804;28;20230;-73
2022/10/07 10:54:35;;;;;;;8.77;2.47;;;;;;;29.88;29.12;102202.69;5008424;28;20576;-72
2022/10/07 10:57:13;;;;;;;4.90;1.80;;;;;;;29.28;29.40;102202.28;5000408;28;20199;-73
2022/10/07 11:00:04;;;;;;;7.10;2.35;;;;;;;30.89;27.62;102190.63;5002239;28;20294;-73
2022/10/07 11:02:41;;;;;;;5.40;2.20;;;;;;;32.82;26.28;102176.09;4998206;28;20563;-71
2022/10/07 11:05:23;;;;;;;8.98;2.40;;;;;;;28.75;30.48;102195.38;4996204;28;20191;-70
2022/10/07 11:07:57;;;;;;;8.40;2.63;;;;;;;28.65;30.84;102186.06;5001162;28;20202;-73
2022/10/07 11:10:29;;;;;;;7.40;2.83;;;;;;;29.96;28.58;102174.16;5000669;28;20211;-73
2022/10/07 11:13:23;;;;;;;8.48;2.50;;;;;;;30.21;28.70;102171.44;4997800;28;20295;-73
2022/10/07 11:16:00;;;;;;;7.35;2.75;;;;;;;32.99;26.25;102151.31;4995362;28;20764;-71
2022/10/07 11:18:40;;;;;;;7.88;2.47;;;;;;;29.68;29.67;102162.97;5000446;28;20208;-73
2022/10/07 11:21:14;;;;;;;7.18;2.25;;;;;;;31.13;28.47;102152.50;4994501;28;20350;-73
2022/10/07 11:24:00;;;;;;;6.60;2.42;;;;;;;25.57;35.88;102164.66;5005320;28;20209;-72
2022/10/07 11:27:01;;;;;;;7.43;2.30;;;;;;;29.12;30.42;102146.56;4996404;28;20195;-73
2022/10/07 11:29:48;;;;;;;5.47;2.20;;;;;;;29.37;29.90;102143.88;4992372;28;20199;-72
2022/10/07 11:32:32;;;;;;;5.60;2.15;;;;;;;25.02;37.75;102164.88;4994843;28;20273;-72
2022/10/07 11:35:12;;;;;;;6.85;2.30;;;;;;;28.85;31.36;102141.38;4996695;28;20188;-72
2022/10/07 11:37:44;;;;;;;4.60;1.92;;;;;;;24.28;37.04;102160.03;4991929;28;20190;-72
2022/10/07 11:40:09;;;;;;;6.20;2.63;;;;;;;29.47;30.49;102127.63;4993169;28;20215;-72
2022/10/07 11:42:47;;;;;;;4.35;2.40;;;;;;;32.06;28.13;102113.63;4986856;28;20195;-73
2022/10/07 11:45:20;;;;;;;7.28;2.42;;;;;;;32.95;26.27;102112.56;4994952;28;20190;-73
2022/10/07 11:47:55;;;;;;;3.75;1.95;;;;;;;29.38;30.01;102122.69;4993962;28;20215;-73
2022/10/07 11:50:46;;;;;;;7.03;2.20;;;;;;;29.85;28.67;102116.44;5019320;28;20220;-73
2022/10/07 11:53:21;;;;;;;6.78;1.90;;;;;;;28.46;30.84;102122.50;4997861;28;20226;-72
2022/10/07 11:56:09;;;;;;;7.70;2.30;;;;;;;27.25;34.30;102119.28;4993529;28;20258;-72
2022/10/07 11:58:36;;;;;;;5.68;2.28;;;;;;;26.55;35.12;102116.81;4988798;28;20266;-72